Austin, TX (78725)

5:28 AM CDT on August 24, 2016 (GMT -0500)
Chaparral Crossing | | Change Station

Elev 440 ft 30.24 °N, 97.57 °W | Updated 4 seconds ago

Overcast
Overcast
76.6 °F
Feels Like 78 °F
N
1.8
Wind Variable Wind from West
Gusts 2.5 mph

Today
High -- | Low -- °F
--% Chance of Precip.
Yesterday
High -- | Low -- °F
Precip. -- in
Pressure 30.07 in
Visibility 5.0 miles
Clouds Overcast 500 ft
Heat Index 78 °F
Dew Point 67 °F
Humidity 71%
Rainfall 0.00 in
Snow Depth Not available.
7:03 AM 8:01 PM
Waning Gibbous, 58% visible
METAR KAUS 240953Z 19010KT 5SM BR OVC005 25/24 A3011 RMK AO2 SLP183 T02500244
Pressure 30.07 in
Visibility 5.0 miles
Clouds Overcast 500 ft
Heat Index 78 °F
Dew Point 67 °F
Humidity 71%
Rainfall 0.00 in
Snow Depth Not available.
7:03 AM 8:01 PM
Waning Gibbous, 58% visible
METAR KAUS 240953Z 19010KT 5SM BR OVC005 25/24 A3011 RMK AO2 SLP183 T02500244

10-Day Weather Forecast

Almanac

Astronomy

Aug. 24, 2016 Rise Set
Actual Time
Civil Twilight
Nautical Twilight
Astronomical Twilight
Moon
Length of Visible Light
Length of Day
Tomorrow will be .
, % of the Moon is Illuminated

Today's Extremes

State Highs State Lows

Community

WunderPhotos

Upload Photos

1,934,560 photos uploaded!

WunderBlog® & News

Nearby

Air Quality

  Air Quality AQ Index Pollutant
Not available.

Snow Depth

Station Depth Elevation

Earthquake Activity

City Distance Mag. Time & Date
Minimum magnitude displayed is 2.5.

Coastal Water Temperatures

Place Temperature

Stations

Nearby Weather Stations

Station Location Temp. Windchill Dew Point Humidity Wind Precip. Elev Updated Type
                   

Watches & Warnings

There are currently no watches in effect.